Time;durP1;ratioP1;P1;durP2;ratioP2;P2;SDS_P1;SDS_P2;PMS_P1;PMS_P2;Temp;Humidity;BMP_temperature;BMP_pressure;BME280_temperature;BME280_humidity;BME280_pressure;Samples;Min_cycle;Max_cycle;Signal;HPM_P1;HPM_P2
2023/12/02 00:00:08;;;;;;;39.13;21.57;;;0.40;99.90;;;;;;6214278;23;19997;-76
2023/12/02 00:02:34;;;;;;;40.70;20.33;;;0.40;99.90;;;;;;6238126;23;20067;-76
2023/12/02 00:05:00;;;;;;;40.87;22.60;;;0.40;99.90;;;;;;6212431;23;20000;-76
2023/12/02 00:07:26;;;;;;;40.30;21.97;;;0.40;99.90;;;;;;6213211;23;20005;-76
2023/12/02 00:09:51;;;;;;;35.23;21.83;;;0.40;99.90;;;;;;6214120;23;19993;-76
2023/12/02 00:12:17;;;;;;;36.70;20.43;;;0.50;99.90;;;;;;6214263;23;20028;-77
2023/12/02 00:14:43;;;;;;;42.70;22.67;;;0.40;99.90;;;;;;6214397;23;19993;-76
2023/12/02 00:17:08;;;;;;;37.13;21.77;;;0.50;99.90;;;;;;6214229;23;20419;-76
2023/12/02 00:19:34;;;;;;;34.93;20.53;;;0.50;99.90;;;;;;6214413;23;20031;-76
2023/12/02 00:22:00;;;;;;;36.93;21.27;;;0.40;99.90;;;;;;6212314;23;20489;-76
2023/12/02 00:24:25;;;;;;;36.80;20.43;;;0.40;99.90;;;;;;6214402;23;20434;-76
2023/12/02 00:26:51;;;;;;;38.97;21.70;;;0.40;99.90;;;;;;6214253;23;20005;-76
2023/12/02 00:29:16;;;;;;;36.83;21.17;;;0.40;99.90;;;;;;6214151;23;19997;-76
2023/12/02 00:31:42;;;;;;;34.87;20.37;;;0.40;99.90;;;;;;6212465;23;20063;-76
2023/12/02 00:34:11;;;;;;;38.53;21.20;;;0.40;99.90;;;;;;6213882;23;20088;-76
2023/12/02 00:36:36;;;;;;;39.33;22.50;;;0.40;99.90;;;;;;6214332;23;20005;-76
2023/12/02 00:39:02;;;;;;;39.13;22.00;;;0.40;99.90;;;;;;6213486;23;20399;-76
2023/12/02 00:41:28;;;;;;;37.93;20.50;;;0.30;99.90;;;;;;6214075;23;20001;-77
2023/12/02 00:43:53;;;;;;;36.07;20.87;;;0.30;99.90;;;;;;6214056;23;20001;-77
2023/12/02 00:46:19;;;;;;;34.93;19.07;;;0.40;99.90;;;;;;6211684;23;20013;-73
2023/12/02 00:48:44;;;;;;;36.67;21.17;;;0.40;99.90;;;;;;6213676;23;20315;-73
2023/12/02 00:51:10;;;;;;;37.30;20.77;;;0.40;99.90;;;;;;6213534;23;20005;-72
2023/12/02 00:53:35;;;;;;;35.60;20.93;;;0.30;99.90;;;;;;6213349;23;20004;-72
2023/12/02 00:56:01;;;;;;;32.20;19.50;;;0.40;99.90;;;;;;6213048;23;20381;-72
2023/12/02 00:58:26;;;;;;;40.17;22.10;;;0.40;99.90;;;;;;6213672;23;20004;-72
2023/12/02 01:00:52;;;;;;;37.47;20.27;;;0.40;99.90;;;;;;6213214;23;20142;-72
2023/12/02 01:03:17;;;;;;;39.53;21.03;;;0.40;99.90;;;;;;6213018;23;20040;-72
2023/12/02 01:05:43;;;;;;;39.70;21.83;;;0.40;99.90;;;;;;6213291;23;20004;-72
2023/12/02 01:08:08;;;;;;;41.27;21.83;;;0.40;99.90;;;;;;6213146;23;20005;-72
2023/12/02 01:10:34;;;;;;;37.93;21.23;;;0.30;99.90;;;;;;6213620;23;20008;-72
2023/12/02 01:12:59;;;;;;;34.33;19.13;;;0.30;99.90;;;;;;6213466;23;20005;-72
2023/12/02 01:15:25;;;;;;;36.27;20.00;;;0.30;99.90;;;;;;6213407;23;20381;-72
2023/12/02 01:17:50;;;;;;;36.37;20.50;;;0.30;99.90;;;;;;6213402;23;20470;-74
2023/12/02 01:20:16;;;;;;;39.27;21.57;;;0.30;99.90;;;;;;6213287;23;20060;-74
2023/12/02 01:22:42;;;;;;;34.80;20.20;;;0.20;99.90;;;;;;6213131;23;20378;-73
2023/12/02 01:25:07;;;;;;;33.30;17.90;;;0.20;99.90;;;;;;6212839;23;20005;-73
2023/12/02 01:27:33;;;;;;;36.13;19.80;;;0.20;99.90;;;;;;6212711;23;20015;-73
2023/12/02 01:30:00;;;;;;;35.57;20.30;;;0.20;99.90;;;;;;6213049;23;20561;-72
2023/12/02 01:32:26;;;;;;;33.80;19.30;;;0.20;99.90;;;;;;6213309;23;20370;-72
2023/12/02 01:34:52;;;;;;;31.40;17.23;;;0.20;99.90;;;;;;6213105;23;20015;-72
2023/12/02 01:37:17;;;;;;;31.57;18.97;;;0.20;99.90;;;;;;6212979;23;20472;-72
2023/12/02 01:39:43;;;;;;;36.80;20.53;;;0.20;99.90;;;;;;6213411;23;20058;-72
2023/12/02 01:42:08;;;;;;;33.70;20.70;;;0.20;99.90;;;;;;6213060;23;20005;-72
2023/12/02 01:44:34;;;;;;;35.80;21.53;;;0.20;99.90;;;;;;6212608;23;20066;-72
2023/12/02 01:47:00;;;;;;;36.27;19.33;;;0.10;99.90;;;;;;6213386;23;20377;-72
2023/12/02 01:49:27;;;;;;;35.90;19.37;;;0.20;99.90;;;;;;6214925;23;20084;-72
2023/12/02 01:51:53;;;;;;;31.53;18.97;;;0.20;99.90;;;;;;6214940;23;19997;-72
2023/12/02 01:54:19;;;;;;;33.57;18.73;;;0.20;99.90;;;;;;6213728;23;20000;-73
2023/12/02 01:56:46;;;;;;;44.53;23.33;;;0.20;99.90;;;;;;6215380;23;19997;-72
2023/12/02 01:59:13;;;;;;;37.60;19.93;;;0.20;99.90;;;;;;6213598;23;20001;-72
2023/12/02 02:01:39;;;;;;;38.70;20.33;;;0.20;99.90;;;;;;6213307;23;20434;-72
2023/12/02 02:04:04;;;;;;;35.87;20.30;;;0.10;99.90;;;;;;6212733;23;20011;-72
2023/12/02 02:06:30;;;;;;;34.23;19.23;;;0.10;99.90;;;;;;6212569;23;20004;-72
2023/12/02 02:08:55;;;;;;;41.03;20.03;;;0.20;99.90;;;;;;6212943;23;20009;-72
2023/12/02 02:11:21;;;;;;;34.27;19.63;;;0.20;99.90;;;;;;6212782;23;20001;-72
2023/12/02 02:13:46;;;;;;;30.30;17.70;;;0.20;99.90;;;;;;6213208;23;20036;-72
2023/12/02 02:16:12;;;;;;;34.70;18.70;;;0.20;99.90;;;;;;6212881;23;19996;-72
2023/12/02 02:18:38;;;;;;;37.07;18.33;;;0.20;99.90;;;;;;6212670;23;20005;-74
2023/12/02 02:21:04;;;;;;;33.60;18.77;;;0.30;99.90;;;;;;6210342;23;20001;-75
2023/12/02 02:23:29;;;;;;;37.17;19.40;;;0.30;99.90;;;;;;6212476;23;20070;-75
2023/12/02 02:25:55;;;;;;;33.57;18.80;;;0.30;99.90;;;;;;6213005;23;20013;-75
2023/12/02 02:28:26;;;;;;;30.27;16.80;;;0.30;99.90;;;;;;6212486;23;20040;-75
2023/12/02 02:30:51;;;;;;;34.60;18.33;;;0.20;99.90;;;;;;6211674;23;20020;-75
2023/12/02 02:33:18;;;;;;;39.33;19.50;;;0.30;99.90;;;;;;6212509;23;20001;-75
2023/12/02 02:35:43;;;;;;;37.23;19.30;;;0.30;99.90;;;;;;6213007;23;20067;-75
2023/12/02 02:38:10;;;;;;;34.97;19.07;;;0.20;99.90;;;;;;6210734;23;20035;-75
2023/12/02 02:40:36;;;;;;;36.30;19.40;;;0.20;99.90;;;;;;6212848;23;20004;-75
2023/12/02 02:43:01;;;;;;;33.70;18.60;;;0.20;99.90;;;;;;6211212;23;20015;-75
2023/12/02 02:45:30;;;;;;;32.37;18.17;;;0.20;99.90;;;;;;6212617;23;20004;-75
2023/12/02 02:47:55;;;;;;;30.97;17.97;;;0.20;99.90;;;;;;6236565;23;20013;-76
2023/12/02 02:50:21;;;;;;;28.97;15.13;;;0.20;99.90;;;;;;6212813;23;20478;-76
2023/12/02 02:52:47;;;;;;;28.43;16.47;;;0.30;99.90;;;;;;6211118;23;20005;-76
2023/12/02 02:55:12;;;;;;;37.50;20.70;;;0.30;99.90;;;;;;6212946;23;20063;-76
2023/12/02 02:57:38;;;;;;;32.67;18.57;;;0.30;99.90;;;;;;6212829;23;20027;-76
2023/12/02 03:00:09;;;;;;;29.80;17.27;;;0.30;99.90;;;;;;6212653;23;20000;-76
2023/12/02 03:02:38;;;;;;;31.13;19.00;;;0.30;99.90;;;;;;6212718;23;20426;-76
2023/12/02 03:05:04;;;;;;;35.27;19.20;;;0.30;99.90;;;;;;6212180;23;20032;-76
2023/12/02 03:07:31;;;;;;;36.00;18.63;;;0.30;99.90;;;;;;6211469;23;20703;-76
2023/12/02 03:09:56;;;;;;;32.90;19.13;;;0.30;99.90;;;;;;6212775;23;20000;-76
2023/12/02 03:12:23;;;;;;;35.10;19.07;;;0.30;99.90;;;;;;6210590;23;20074;-76
2023/12/02 03:14:48;;;;;;;33.60;18.40;;;0.30;99.90;;;;;;6210986;23;20062;-76
2023/12/02 03:17:14;;;;;;;31.80;17.60;;;0.40;99.90;;;;;;6212689;23;20407;-76
2023/12/02 03:19:40;;;;;;;34.50;18.90;;;0.40;99.90;;;;;;6212948;23;20072;-75
2023/12/02 03:22:06;;;;;;;30.63;16.33;;;0.40;99.90;;;;;;6211072;23;20028;-75
2023/12/02 03:24:31;;;;;;;30.83;17.33;;;0.40;99.90;;;;;;6210819;23;20022;-75
2023/12/02 03:26:57;;;;;;;29.77;16.67;;;0.40;99.90;;;;;;6212451;23;20008;-75
2023/12/02 03:29:22;;;;;;;38.13;20.93;;;0.40;99.90;;;;;;6212510;23;20013;-75
2023/12/02 03:31:48;;;;;;;33.67;18.50;;;0.40;99.90;;;;;;6211043;23;20064;-75
2023/12/02 03:34:13;;;;;;;32.27;17.97;;;0.40;99.90;;;;;;6212048;23;20376;-75
2023/12/02 03:36:39;;;;;;;30.30;16.83;;;0.40;99.90;;;;;;6211416;23;19997;-75
2023/12/02 03:39:05;;;;;;;33.70;18.87;;;0.40;99.90;;;;;;6211156;23;20000;-75
2023/12/02 03:41:32;;;;;;;29.60;16.87;;;0.40;99.90;;;;;;6212829;23;20001;-75
2023/12/02 03:43:57;;;;;;;34.63;18.43;;;0.40;99.90;;;;;;6211152;23;20079;-75
2023/12/02 03:46:23;;;;;;;31.63;18.50;;;0.40;99.90;;;;;;6212499;23;20441;-75
2023/12/02 03:48:48;;;;;;;31.37;18.50;;;0.50;99.90;;;;;;6212442;23;20026;-75
2023/12/02 03:51:14;;;;;;;30.00;17.37;;;0.50;99.90;;;;;;6212464;23;20004;-75
2023/12/02 03:53:40;;;;;;;31.73;18.73;;;0.50;99.90;;;;;;6212291;23;20430;-73
2023/12/02 03:56:06;;;;;;;30.60;18.13;;;0.50;99.90;;;;;;6212132;23;20062;-73
2023/12/02 03:58:31;;;;;;;34.87;18.67;;;0.50;99.90;;;;;;6212378;23;20050;-73
2023/12/02 04:00:57;;;;;;;31.00;18.33;;;0.50;99.90;;;;;;6212211;23;20329;-73
2023/12/02 04:03:23;;;;;;;29.77;15.90;;;0.50;99.90;;;;;;6211773;23;20004;-73
2023/12/02 04:05:50;;;;;;;30.33;18.33;;;0.50;99.90;;;;;;6212018;23;20028;-73
2023/12/02 04:08:16;;;;;;;28.73;17.17;;;0.50;99.90;;;;;;6213797;23;20004;-73
2023/12/02 04:10:42;;;;;;;26.23;15.47;;;0.40;99.90;;;;;;6214145;23;20011;-73
2023/12/02 04:13:07;;;;;;;31.67;16.90;;;0.40;99.90;;;;;;6213350;23;20041;-73
2023/12/02 04:15:33;;;;;;;32.43;17.73;;;0.40;99.90;;;;;;6213959;23;20434;-72
2023/12/02 04:17:59;;;;;;;35.00;18.87;;;0.30;99.90;;;;;;6213884;23;20075;-72
2023/12/02 04:20:24;;;;;;;34.70;17.77;;;0.30;99.90;;;;;;6215232;23;20024;-72
2023/12/02 04:22:50;;;;;;;35.17;19.27;;;0.30;99.90;;;;;;6214113;23;20430;-72
2023/12/02 04:25:15;;;;;;;30.50;18.40;;;0.20;99.90;;;;;;6213952;23;20005;-72
2023/12/02 04:27:42;;;;;;;31.73;17.53;;;0.20;99.90;;;;;;6213556;23;20024;-72
2023/12/02 04:30:11;;;;;;;31.73;17.30;;;0.10;99.90;;;;;;6213782;23;20047;-72
2023/12/02 04:32:36;;;;;;;34.57;17.90;;;0.00;99.90;;;;;;6213528;23;20003;-72
2023/12/02 04:35:03;;;;;;;30.73;17.10;;;0.00;99.90;;;;;;6213790;23;20001;-72
2023/12/02 04:37:29;;;;;;;34.87;18.93;;;0.00;99.90;;;;;;6213984;23;20000;-72
2023/12/02 04:39:54;;;;;;;35.40;18.83;;;-0.10;99.90;;;;;;6213339;23;20457;-72
2023/12/02 04:42:20;;;;;;;34.80;19.03;;;-0.10;99.90;;;;;;6214177;23;20012;-72
2023/12/02 04:44:45;;;;;;;36.47;18.37;;;-0.10;99.90;;;;;;6213659;23;20000;-72
2023/12/02 04:47:11;;;;;;;32.07;18.30;;;-0.20;99.90;;;;;;6213579;23;20013;-72
2023/12/02 04:49:37;;;;;;;35.03;18.90;;;-0.10;99.90;;;;;;6213796;23;20339;-72
2023/12/02 04:52:03;;;;;;;34.33;18.57;;;-0.20;99.90;;;;;;6212223;23;20481;-72
2023/12/02 04:54:29;;;;;;;30.73;17.77;;;-0.20;99.90;;;;;;6211875;23;20351;-72
2023/12/02 04:56:54;;;;;;;36.67;19.97;;;-0.10;99.90;;;;;;6213825;23;20068;-72
2023/12/02 04:59:20;;;;;;;30.67;16.83;;;-0.10;99.90;;;;;;6213851;23;20008;-72
2023/12/02 05:01:46;;;;;;;31.40;17.93;;;-0.10;99.90;;;;;;6213321;23;20001;-72
2023/12/02 05:04:11;;;;;;;37.10;19.63;;;-0.10;99.90;;;;;;6213401;23;20000;-72
2023/12/02 05:06:39;;;;;;;35.37;19.83;;;-0.10;99.90;;;;;;6213443;23;20008;-72
2023/12/02 05:09:06;;;;;;;36.83;19.63;;;-0.10;99.90;;;;;;6213336;23;20031;-72
2023/12/02 05:11:31;;;;;;;31.17;17.47;;;0.00;99.90;;;;;;6213282;23;20055;-72
2023/12/02 05:13:57;;;;;;;29.37;17.07;;;0.00;99.90;;;;;;6213054;23;20434;-72
2023/12/02 05:16:23;;;;;;;35.00;18.57;;;0.00;99.90;;;;;;6213123;23;20005;-72
2023/12/02 05:18:48;;;;;;;35.87;19.47;;;0.00;99.90;;;;;;6213438;23;20001;-72
2023/12/02 05:21:15;;;;;;;34.70;19.20;;;0.10;99.90;;;;;;6211921;23;20005;-72
2023/12/02 05:23:41;;;;;;;31.90;18.30;;;0.10;99.90;;;;;;6212341;23;20087;-72
2023/12/02 05:26:08;;;;;;;34.50;18.30;;;0.10;99.90;;;;;;6213499;23;20024;-72
2023/12/02 05:28:33;;;;;;;35.87;20.97;;;0.10;99.90;;;;;;6213042;23;20013;-72
2023/12/02 05:30:59;;;;;;;33.47;18.37;;;0.10;99.90;;;;;;6211731;23;20370;-72
2023/12/02 05:33:26;;;;;;;35.53;20.33;;;0.20;99.90;;;;;;6213212;23;20075;-72
2023/12/02 05:35:52;;;;;;;33.07;17.33;;;0.20;99.90;;;;;;6213184;23;20080;-72
2023/12/02 05:38:17;;;;;;;31.10;18.63;;;0.20;99.90;;;;;;6213140;23;20039;-72
2023/12/02 05:40:43;;;;;;;36.97;19.90;;;0.20;99.90;;;;;;6210547;23;19996;-72
2023/12/02 05:43:08;;;;;;;29.60;16.50;;;0.30;99.90;;;;;;6210266;23;20001;-72
2023/12/02 05:45:34;;;;;;;29.53;17.13;;;0.30;99.90;;;;;;6211823;23;20079;-72
2023/12/02 05:48:00;;;;;;;37.27;19.60;;;0.30;99.90;;;;;;6211064;23;20005;-72
2023/12/02 05:50:29;;;;;;;35.00;18.30;;;0.20;99.90;;;;;;6211305;23;20012;-72
2023/12/02 05:52:54;;;;;;;31.67;19.23;;;0.20;99.90;;;;;;6211231;23;20026;-72
2023/12/02 05:55:20;;;;;;;37.80;19.67;;;0.30;99.90;;;;;;6211098;23;20371;-72
2023/12/02 05:57:46;;;;;;;36.37;18.87;;;0.30;99.90;;;;;;6211366;23;20005;-72
2023/12/02 06:00:12;;;;;;;33.97;17.83;;;0.30;99.90;;;;;;6211121;23;20430;-72
2023/12/02 06:02:37;;;;;;;31.60;18.53;;;0.30;99.90;;;;;;6212708;23;20128;-72
2023/12/02 06:05:04;;;;;;;37.50;19.70;;;0.30;99.90;;;;;;6212493;23;20368;-72
2023/12/02 06:07:29;;;;;;;35.57;19.40;;;0.30;99.90;;;;;;6212577;23;20004;-72
2023/12/02 06:09:55;;;;;;;38.50;19.03;;;0.30;99.90;;;;;;6213040;23;20304;-72
2023/12/02 06:12:20;;;;;;;32.87;17.60;;;0.30;99.90;;;;;;6210922;23;20449;-72
2023/12/02 06:14:46;;;;;;;32.77;17.83;;;0.40;99.90;;;;;;6212650;23;20080;-72
2023/12/02 06:17:11;;;;;;;35.63;17.70;;;0.40;99.90;;;;;;6212791;23;20035;-72
2023/12/02 06:19:37;;;;;;;33.67;17.90;;;0.30;99.90;;;;;;6210894;23;20003;-72
2023/12/02 06:22:02;;;;;;;34.37;18.93;;;0.40;99.90;;;;;;6211995;23;20028;-72
2023/12/02 06:24:28;;;;;;;35.23;19.63;;;0.40;99.90;;;;;;6212441;23;20005;-72
2023/12/02 06:26:54;;;;;;;37.90;19.97;;;0.40;99.90;;;;;;6212248;23;20012;-72
2023/12/02 06:29:19;;;;;;;35.70;18.97;;;0.40;99.90;;;;;;6212103;23;20346;-72
2023/12/02 06:31:48;;;;;;;30.97;17.00;;;0.40;99.90;;;;;;6212482;23;20430;-72
2023/12/02 06:34:14;;;;;;;31.03;18.23;;;0.40;99.90;;;;;;6210811;23;20016;-72
2023/12/02 06:36:39;;;;;;;36.73;18.73;;;0.40;99.90;;;;;;6212686;23;20287;-72
2023/12/02 06:39:07;;;;;;;29.60;18.10;;;0.30;99.90;;;;;;6211941;23;20011;-72
2023/12/02 06:41:32;;;;;;;32.00;18.13;;;0.30;99.90;;;;;;6212207;23;20519;-73
2023/12/02 06:43:58;;;;;;;33.60;18.40;;;0.30;99.90;;;;;;6212506;23;20005;-72
2023/12/02 06:46:24;;;;;;;32.67;17.73;;;0.20;99.90;;;;;;6212334;23;20000;-72
2023/12/02 06:48:49;;;;;;;31.60;18.47;;;0.20;99.90;;;;;;6212805;23;20007;-72
2023/12/02 06:51:15;;;;;;;33.40;19.10;;;0.10;99.90;;;;;;6212564;23;20007;-72
2023/12/02 06:53:41;;;;;;;31.30;17.20;;;0.10;99.90;;;;;;6212462;23;20051;-72
2023/12/02 06:56:27;;;;;;;29.20;17.23;;;0.10;99.90;;;;;;6211610;23;20020;-72
2023/12/02 06:58:53;;;;;;;29.23;15.80;;;0.10;99.90;;;;;;6211966;23;20082;-72
2023/12/02 07:01:32;;;;;;;31.23;17.30;;;0.10;99.90;;;;;;6212361;23;20008;-72
2023/12/02 07:04:00;;;;;;;37.10;19.87;;;0.10;99.90;;;;;;6210788;23;20015;-72
2023/12/02 07:06:26;;;;;;;31.37;16.70;;;0.10;99.90;;;;;;6212253;23;20004;-72
2023/12/02 07:08:53;;;;;;;31.37;18.43;;;0.20;99.90;;;;;;6212333;23;20445;-72
2023/12/02 07:11:19;;;;;;;31.47;17.80;;;0.20;99.90;;;;;;6212087;23;20022;-72
2023/12/02 07:13:48;;;;;;;29.97;18.73;;;0.20;99.90;;;;;;6210671;23;20013;-72
2023/12/02 07:16:13;;;;;;;34.63;18.80;;;0.20;99.90;;;;;;6212577;23;20039;-72
2023/12/02 07:18:39;;;;;;;32.00;18.30;;;0.20;99.90;;;;;;6212234;23;20362;-72
2023/12/02 07:21:06;;;;;;;32.63;18.47;;;0.20;99.90;;;;;;6211982;23;20008;-72
2023/12/02 07:23:31;;;;;;;30.70;17.00;;;0.30;99.90;;;;;;6211994;23;20439;-73
2023/12/02 07:25:58;;;;;;;29.63;18.27;;;0.30;99.90;;;;;;6212291;23;20032;-73
2023/12/02 07:28:24;;;;;;;32.00;19.53;;;0.30;99.90;;;;;;6211787;23;20012;-73
2023/12/02 07:30:50;;;;;;;32.00;17.27;;;0.30;99.90;;;;;;6213084;23;20330;-73
2023/12/02 07:33:16;;;;;;;34.30;18.67;;;0.30;99.90;;;;;;6211762;23;20007;-73
2023/12/02 07:35:42;;;;;;;32.23;18.80;;;0.30;99.90;;;;;;6212410;23;20005;-73
2023/12/02 07:38:08;;;;;;;34.20;19.80;;;0.30;99.90;;;;;;6211692;23;19997;-73
2023/12/02 07:40:35;;;;;;;32.13;18.67;;;0.30;99.90;;;;;;6212179;23;20001;-73
2023/12/02 07:43:00;;;;;;;30.90;17.07;;;0.30;99.90;;;;;;6213064;23;20004;-73
2023/12/02 07:45:26;;;;;;;34.30;19.23;;;0.30;99.90;;;;;;6214189;23;20426;-73
2023/12/02 07:47:52;;;;;;;30.47;16.90;;;0.30;99.90;;;;;;6214525;23;20422;-73
2023/12/02 07:50:17;;;;;;;30.37;17.83;;;0.30;99.90;;;;;;6214078;23;20079;-72
2023/12/02 07:52:43;;;;;;;34.00;18.80;;;0.30;99.90;;;;;;6213852;23;20001;-73
2023/12/02 07:55:08;;;;;;;31.10;17.40;;;0.30;99.90;;;;;;6213319;23;20012;-73
2023/12/02 07:57:34;;;;;;;31.77;18.23;;;0.30;99.90;;;;;;6213844;23;20009;-73
2023/12/02 07:59:59;;;;;;;31.00;17.30;;;0.20;99.90;;;;;;6214122;23;20035;-73
2023/12/02 08:02:25;;;;;;;31.87;16.53;;;0.20;99.90;;;;;;6212437;23;20588;-73
2023/12/02 08:04:50;;;;;;;28.70;17.13;;;0.20;99.90;;;;;;6214276;23;20050;-73
2023/12/02 08:07:16;;;;;;;29.70;19.20;;;0.20;99.90;;;;;;6213935;23;20032;-73
2023/12/02 08:09:41;;;;;;;29.97;17.87;;;0.10;99.90;;;;;;6213682;23;20029;-73
2023/12/02 08:12:08;;;;;;;31.83;18.60;;;0.10;99.90;;;;;;6213592;23;20004;-73
2023/12/02 08:14:34;;;;;;;36.07;19.63;;;0.10;99.90;;;;;;6213091;23;20008;-73
2023/12/02 08:16:59;;;;;;;32.93;19.03;;;0.10;99.90;;;;;;6213935;23;20003;-73
2023/12/02 08:19:25;;;;;;;30.20;18.27;;;0.00;99.90;;;;;;6214034;23;20036;-73
2023/12/02 08:21:50;;;;;;;31.10;18.70;;;0.00;99.90;;;;;;6214045;23;20008;-73
2023/12/02 08:24:16;;;;;;;30.50;19.17;;;0.00;99.90;;;;;;6213588;23;20107;-73
2023/12/02 08:26:43;;;;;;;32.93;19.00;;;0.00;99.90;;;;;;6214024;23;20028;-73
2023/12/02 08:29:08;;;;;;;34.10;21.60;;;0.00;99.90;;;;;;6213355;23;20405;-73
2023/12/02 08:31:34;;;;;;;35.63;19.27;;;0.00;99.90;;;;;;6213367;23;20031;-73
2023/12/02 08:33:59;;;;;;;31.80;18.67;;;0.00;99.90;;;;;;6213545;23;20005;-73
2023/12/02 08:36:25;;;;;;;32.67;17.67;;;0.10;99.90;;;;;;6213881;23;20047;-73
2023/12/02 08:38:50;;;;;;;31.50;18.83;;;0.10;99.90;;;;;;6213422;23;20001;-73
2023/12/02 08:41:16;;;;;;;29.00;17.53;;;0.20;99.90;;;;;;6213731;23;20001;-73
2023/12/02 08:43:41;;;;;;;34.93;19.83;;;0.30;99.90;;;;;;6212407;23;20011;-73
2023/12/02 08:46:14;;;;;;;36.47;19.27;;;0.30;99.90;;;;;;6213150;23;20345;-72
2023/12/02 08:48:40;;;;;;;32.33;18.07;;;0.30;99.90;;;;;;6214038;23;20055;-71
2023/12/02 08:51:06;;;;;;;33.87;20.20;;;0.40;99.90;;;;;;6213007;23;20013;-71
2023/12/02 08:53:31;;;;;;;30.90;19.40;;;0.40;99.90;;;;;;6212901;23;20013;-71
2023/12/02 08:55:57;;;;;;;30.23;18.50;;;0.50;99.90;;;;;;6213308;23;20083;-71
2023/12/02 08:58:22;;;;;;;32.77;18.80;;;0.60;99.90;;;;;;6213579;23;20091;-71
2023/12/02 09:00:48;;;;;;;33.80;19.30;;;0.60;99.90;;;;;;6211515;23;20131;-71
2023/12/02 09:03:13;;;;;;;33.70;19.43;;;0.70;99.90;;;;;;6213144;23;20078;-71
2023/12/02 09:05:39;;;;;;;34.70;19.53;;;0.70;99.90;;;;;;6213060;23;20001;-71
2023/12/02 09:08:05;;;;;;;34.10;21.10;;;0.80;99.90;;;;;;6209401;23;20047;-71
2023/12/02 09:10:31;;;;;;;33.03;19.60;;;0.80;99.90;;;;;;6212589;23;20330;-71
2023/12/02 09:12:57;;;;;;;35.20;20.80;;;0.90;99.90;;;;;;6212496;23;20047;-71
2023/12/02 09:15:22;;;;;;;33.27;20.17;;;0.90;99.90;;;;;;6210107;23;19996;-71
2023/12/02 09:18:14;;;;;;;38.90;21.43;;;1.00;99.90;;;;;;6212540;23;20055;-73
2023/12/02 09:20:45;;;;;;;35.37;21.10;;;1.10;99.90;;;;;;6212975;23;20008;-73
2023/12/02 09:23:12;;;;;;;36.00;21.97;;;1.00;99.90;;;;;;6212045;23;20009;-71
2023/12/02 09:25:39;;;;;;;37.07;22.77;;;1.00;99.90;;;;;;6198779;23;20358;-71
2023/12/02 09:28:05;;;;;;;41.23;23.47;;;0.90;99.90;;;;;;6206408;23;20009;-73
2023/12/02 09:30:32;;;;;;;41.27;23.70;;;0.80;99.90;;;;;;6207164;23;20038;-71
2023/12/02 09:32:57;;;;;;;38.73;21.43;;;0.70;99.90;;;;;;6213053;23;20442;-71
2023/12/02 09:35:23;;;;;;;43.93;23.47;;;0.70;99.90;;;;;;6212447;23;20001;-71
2023/12/02 09:37:51;;;;;;;47.23;26.47;;;0.60;99.90;;;;;;6213102;23;20004;-71
2023/12/02 09:40:23;;;;;;;42.80;24.03;;;0.60;99.90;;;;;;6213059;23;20079;-71
2023/12/02 09:43:10;;;;;;;36.37;20.47;;;0.60;99.90;;;;;;6213132;23;20315;-71
2023/12/02 09:45:59;;;;;;;42.87;23.20;;;0.60;99.90;;;;;;6212674;23;20422;-73
2023/12/02 09:48:29;;;;;;;39.83;23.73;;;0.60;99.90;;;;;;6209805;23;20043;-71
2023/12/02 09:51:12;;;;;;;41.10;24.47;;;0.60;99.90;;;;;;6211930;23;20083;-71
2023/12/02 09:54:00;;;;;;;47.03;25.13;;;0.60;99.90;;;;;;6212638;23;20005;-71
2023/12/02 09:56:30;;;;;;;42.37;24.50;;;0.60;99.90;;;;;;6212740;23;20347;-70
2023/12/02 09:59:10;;;;;;;42.07;24.83;;;0.60;99.90;;;;;;6212903;23;20043;-71
2023/12/02 10:01:46;;;;;;;44.30;25.33;;;0.70;99.90;;;;;;6212767;23;20020;-71
2023/12/02 10:04:28;;;;;;;49.30;25.57;;;0.70;99.90;;;;;;6212113;23;20040;-70
2023/12/02 10:07:03;;;;;;;43.90;23.43;;;0.80;99.90;;;;;;6212260;23;20050;-71
2023/12/02 10:09:40;;;;;;;50.90;26.63;;;0.90;99.90;;;;;;6212355;23;20005;-71
2023/12/02 10:12:43;;;;;;;47.20;24.33;;;0.90;99.90;;;;;;6212123;23;20000;-71
2023/12/02 10:15:11;;;;;;;49.03;26.73;;;1.00;99.90;;;;;;6212388;23;20027;-70
2023/12/02 10:17:45;;;;;;;46.10;24.17;;;1.00;99.90;;;;;;6212528;23;20000;-70
2023/12/02 10:20:12;;;;;;;41.20;23.90;;;1.00;99.90;;;;;;6212459;23;20007;-71
2023/12/02 10:22:53;;;;;;;41.70;24.27;;;1.10;99.90;;;;;;6212398;23;20378;-71
2023/12/02 10:25:56;;;;;;;38.87;22.37;;;1.20;99.90;;;;;;6212205;23;19997;-71
2023/12/02 10:28:53;;;;;;;44.50;26.07;;;1.20;99.90;;;;;;6211474;23;20016;-71
2023/12/02 10:31:25;;;;;;;40.03;24.93;;;1.40;99.90;;;;;;6211566;23;20007;-71
2023/12/02 10:34:21;;;;;;;45.37;24.30;;;1.40;99.90;;;;;;6212102;23;20004;-71
2023/12/02 10:36:48;;;;;;;47.33;26.23;;;1.40;99.90;;;;;;6212684;23;20015;-70
2023/12/02 10:39:38;;;;;;;46.73;26.00;;;1.40;99.90;;;;;;6212499;23;19997;-70
2023/12/02 10:42:04;;;;;;;45.80;25.93;;;1.30;99.90;;;;;;6211839;23;20072;-71
2023/12/02 10:44:33;;;;;;;41.87;25.13;;;1.30;99.90;;;;;;6212289;23;20394;-71
2023/12/02 10:47:04;;;;;;;45.97;25.27;;;1.40;99.90;;;;;;6211821;23;20591;-71
2023/12/02 10:49:31;;;;;;;42.37;26.53;;;1.40;99.90;;;;;;6212074;23;20080;-71
2023/12/02 10:52:00;;;;;;;48.67;25.90;;;1.50;99.90;;;;;;6212347;23;20090;-71
2023/12/02 10:54:31;;;;;;;46.97;25.97;;;1.50;99.90;;;;;;6212811;23;20004;-71
2023/12/02 10:57:06;;;;;;;45.33;25.40;;;1.40;99.90;;;;;;6212019;23;20078;-71
2023/12/02 10:59:40;;;;;;;43.73;23.43;;;1.40;99.90;;;;;;6212561;23;19996;-72
2023/12/02 11:02:30;;;;;;;46.45;25.05;;;1.50;99.90;;;;;;6211386;23;20374;-71
2023/12/02 11:05:12;;;;;;;49.47;27.43;;;1.40;99.90;;;;;;6212197;23;20308;-71
2023/12/02 11:07:44;;;;;;;43.77;25.10;;;1.40;99.90;;;;;;6212019;23;20072;-71
2023/12/02 11:10:13;;;;;;;45.40;27.20;;;1.40;99.90;;;;;;6211429;23;20048;-71
2023/12/02 11:12:50;;;;;;;44.90;25.83;;;1.50;99.90;;;;;;6212179;23;19997;-71
2023/12/02 11:15:21;;;;;;;44.13;24.17;;;1.60;99.90;;;;;;6212114;23;20028;-71
2023/12/02 11:17:58;;;;;;;41.23;23.93;;;1.60;99.90;;;;;;6211737;23;20009;-71
2023/12/02 11:20:50;;;;;;;39.63;23.57;;;1.70;99.90;;;;;;6211771;23;20005;-71
2023/12/02 11:23:44;;;;;;;42.40;24.53;;;1.70;99.90;;;;;;6212274;23;20019;-71
2023/12/02 11:26:23;;;;;;;43.13;22.73;;;1.80;99.90;;;;;;6210276;23;20000;-71
2023/12/02 11:29:01;;;;;;;46.40;26.30;;;1.90;99.90;;;;;;6212074;23;20092;-71
2023/12/02 11:31:37;;;;;;;43.47;26.13;;;1.90;99.90;;;;;;6210910;23;20018;-71
2023/12/02 11:34:27;;;;;;;40.50;24.80;;;2.00;99.90;;;;;;6211574;23;20338;-71
2023/12/02 11:37:14;;;;;;;41.50;23.07;;;2.00;99.90;;;;;;6211862;23;20047;-70
2023/12/02 11:39:55;;;;;;;43.20;23.10;;;2.00;99.90;;;;;;6212018;23;20008;-71
2023/12/02 11:42:25;;;;;;;40.33;24.00;;;2.10;99.90;;;;;;6211901;23;20377;-71
2023/12/02 11:45:17;;;;;;;47.37;24.63;;;2.10;99.90;;;;;;6212208;23;20311;-71
2023/12/02 11:48:18;;;;;;;45.40;27.33;;;2.20;99.90;;;;;;6209882;23;20019;-71
2023/12/02 11:51:14;;;;;;;47.40;25.73;;;2.20;99.90;;;;;;6210996;23;20470;-71
2023/12/02 11:54:09;;;;;;;44.03;25.00;;;2.10;99.90;;;;;;6211832;23;20005;-71
2023/12/02 11:56:35;;;;;;;;;;;2.20;99.90;;;;;;6219193;23;20007;-71
2023/12/02 11:59:17;;;;;;;40.17;22.77;;;2.20;99.90;;;;;;6211892;23;19906;-71
2023/12/02 12:01:56;;;;;;;43.73;25.10;;;2.30;99.90;;;;;;6211142;23;20005;-71
2023/12/02 12:04:43;;;;;;;45.13;24.00;;;2.30;99.90;;;;;;6211606;23;20086;-71
2023/12/02 12:07:46;;;;;;;47.33;26.50;;;2.30;99.90;;;;;;6210902;23;20377;-71
2023/12/02 12:10:35;;;;;;;48.77;27.47;;;2.30;99.90;;;;;;6212088;23;20007;-70
2023/12/02 12:13:03;;;;;;;48.33;25.93;;;2.30;99.90;;;;;;6211140;23;20345;-71
2023/12/02 12:15:29;;;;;;;43.03;25.33;;;2.30;99.90;;;;;;6211499;23;20001;-71
2023/12/02 12:17:55;;;;;;;50.27;27.10;;;2.40;99.90;;;;;;6212024;23;20485;-71
2023/12/02 12:20:23;;;;;;;44.57;25.43;;;2.40;99.90;;;;;;6211533;23;20020;-71
2023/12/02 12:22:49;;;;;;;48.60;27.17;;;2.40;99.90;;;;;;6212215;23;20044;-71
2023/12/02 12:25:15;;;;;;;42.80;25.37;;;2.40;99.90;;;;;;6211266;23;20037;-71
2023/12/02 12:27:41;;;;;;;42.97;23.87;;;2.40;99.90;;;;;;6211015;23;20023;-71
2023/12/02 12:30:08;;;;;;;48.70;26.40;;;2.40;99.90;;;;;;6212594;23;20008;-71
2023/12/02 12:32:33;;;;;;;46.87;26.77;;;2.50;99.90;;;;;;6212015;23;20001;-71
2023/12/02 12:34:59;;;;;;;50.17;27.40;;;2.50;99.90;;;;;;6213098;23;20008;-71
2023/12/02 12:37:27;;;;;;;49.33;27.97;;;2.50;99.90;;;;;;6213470;23;20001;-71
2023/12/02 12:39:53;;;;;;;50.00;27.13;;;2.50;99.90;;;;;;6212094;23;20415;-71
2023/12/02 12:42:21;;;;;;;46.00;27.37;;;2.50;99.90;;;;;;6212758;23;20040;-71